Time;durP1;ratioP1;P1;durP2;ratioP2;P2;SDS_P1;SDS_P2;PMS_P1;PMS_P2;Temp;Humidity;BMP_temperature;BMP_pressure;BME280_temperature;BME280_humidity;BME280_pressure;Samples;Min_cycle;Max_cycle;Signal;HPM_P1;HPM_P2
2024/03/19 00:00:24;;;;;;;10.50;4.15;;;;;;;8.90;84.05;101566.78;6254035;28;20050;-77
2024/03/19 00:03:25;;;;;;;11.50;4.25;;;;;;;8.89;85.82;101565.94;6254422;28;20152;-75
2024/03/19 00:06:26;;;;;;;9.95;3.65;;;;;;;8.96;85.76;101556.13;6254368;28;20046;-77
2024/03/19 00:09:29;;;;;;;7.05;3.40;;;;;;;8.96;85.65;101560.50;6253647;28;20061;-75
2024/03/19 00:12:32;;;;;;;9.77;4.22;;;;;;;8.94;85.28;101559.69;6254484;28;20049;-75
2024/03/19 00:15:34;;;;;;;7.80;3.72;;;;;;;8.85;85.42;101555.59;6253996;28;20072;-75
2024/03/19 00:18:35;;;;;;;7.43;3.67;;;;;;;8.84;85.42;101554.75;6254255;28;20046;-76
2024/03/19 00:21:36;;;;;;;10.02;4.40;;;;;;;8.88;84.59;101555.50;6253613;28;20050;-75
2024/03/19 00:24:39;;;;;;;6.28;3.55;;;;;;;8.88;85.13;101559.00;6229768;28;20052;-75
2024/03/19 00:27:40;;;;;;;9.45;3.97;;;;;;;8.85;84.79;101555.59;6234227;28;20049;-77
2024/03/19 00:30:41;;;;;;;9.60;3.50;;;;;;;8.76;83.50;101545.44;6250620;28;20061;-77
2024/03/19 00:33:43;;;;;;;8.45;3.60;;;;;;;8.82;82.68;101537.38;6254018;28;20060;-77
2024/03/19 00:36:44;;;;;;;7.93;3.80;;;;;;;8.60;83.70;101545.94;6253338;28;20597;-77
2024/03/19 00:39:47;;;;;;;6.38;2.83;;;;;;;8.64;83.84;101544.09;6253417;28;20049;-77
2024/03/19 00:42:49;;;;;;;9.10;3.67;;;;;;;8.62;82.65;101538.03;6253637;28;20065;-77
2024/03/19 00:45:50;;;;;;;7.63;3.63;;;;;;;8.49;83.34;101532.31;6253486;28;20052;-77
2024/03/19 00:48:51;;;;;;;8.90;4.07;;;;;;;8.22;83.32;101517.44;6253393;28;20050;-77
2024/03/19 00:51:53;;;;;;;10.30;3.45;;;;;;;8.42;83.63;101529.97;6253220;28;20061;-77
2024/03/19 00:54:56;;;;;;;8.43;2.92;;;;;;;8.38;84.01;101540.53;6253054;28;20426;-77
2024/03/19 00:57:57;;;;;;;6.75;3.45;;;;;;;8.48;84.19;101540.22;6253401;28;20049;-77
2024/03/19 01:00:59;;;;;;;8.00;3.00;;;;;;;8.47;83.90;101549.84;6252924;28;20045;-76
2024/03/19 01:04:00;;;;;;;10.65;4.35;;;;;;;8.41;83.55;101549.22;6251947;28;20358;-77
2024/03/19 01:07:01;;;;;;;7.93;3.92;;;;;;;8.37;83.92;101544.06;6252820;28;20045;-77
2024/03/19 01:10:07;;;;;;;11.15;3.03;;;;;;;8.36;84.18;101542.34;6252715;28;20061;-77
2024/03/19 01:13:08;;;;;;;8.75;4.00;;;;;;;8.34;84.68;101540.63;6253185;28;20060;-77
2024/03/19 01:16:09;;;;;;;9.77;4.22;;;;;;;8.33;83.35;101538.94;6252591;28;20051;-77
2024/03/19 01:19:11;;;;;;;7.40;3.50;;;;;;;8.24;84.12;101539.22;6252993;28;20052;-77
2024/03/19 01:22:12;;;;;;;6.70;3.15;;;;;;;8.31;84.98;101535.47;6252201;28;20365;-77
2024/03/19 01:25:15;;;;;;;4.82;2.85;;;;;;;8.37;86.14;101537.97;6252659;28;20045;-77
2024/03/19 01:28:16;;;;;;;6.72;3.45;;;;;;;8.42;87.42;101533.44;6252573;28;20049;-76
2024/03/19 01:31:17;;;;;;;9.35;3.67;;;;;;;8.42;85.47;101541.28;6252232;28;20465;-77
2024/03/19 01:34:19;;;;;;;5.55;2.90;;;;;;;8.42;85.26;101546.53;6252593;28;20060;-77
2024/03/19 01:37:20;;;;;;;6.78;3.20;;;;;;;8.38;85.78;101550.16;6252125;28;20061;-76
2024/03/19 01:40:23;;;;;;;7.45;2.83;;;;;;;8.32;86.49;101548.56;6251750;28;20180;-76
2024/03/19 01:43:24;;;;;;;9.95;3.30;;;;;;;8.32;86.50;101545.94;6251743;28;20056;-76
2024/03/19 01:46:28;;;;;;;7.43;3.53;;;;;;;8.33;88.04;101541.53;6252049;28;20085;-77
2024/03/19 01:49:30;;;;;;;7.55;3.17;;;;;;;8.35;87.48;101544.97;6251678;28;20460;-75
2024/03/19 01:52:32;;;;;;;6.53;3.08;;;;;;;8.35;86.79;101540.56;6252261;28;20053;-76
2024/03/19 01:55:35;;;;;;;7.65;3.47;;;;;;;8.28;87.50;101540.84;6251696;28;20456;-77
2024/03/19 01:58:36;;;;;;;6.68;3.22;;;;;;;8.29;86.83;101540.78;6251976;28;20045;-77
2024/03/19 02:01:38;;;;;;;7.10;3.22;;;;;;;8.27;87.56;101545.22;6251276;28;20350;-76
2024/03/19 02:04:39;;;;;;;6.78;2.92;;;;;;;8.21;86.58;101537.53;6251590;28;20354;-76
2024/03/19 02:07:41;;;;;;;7.20;3.42;;;;;;;8.20;86.77;101538.44;6251600;28;20056;-76
2024/03/19 02:10:47;;;;;;;5.43;3.13;;;;;;;8.14;88.05;101526.41;6251070;28;20049;-75
2024/03/19 02:13:48;;;;;;;6.47;3.45;;;;;;;8.04;88.09;101524.09;6251768;28;20049;-76
2024/03/19 02:16:50;;;;;;;9.38;3.47;;;;;;;8.00;89.11;101527.72;6250829;28;20045;-76
2024/03/19 02:19:52;;;;;;;8.02;2.85;;;;;;;8.08;89.37;101523.97;6251108;28;20069;-76
2024/03/19 02:22:55;;;;;;;11.85;3.45;;;;;;;8.02;88.85;101516.28;6251320;28;20061;-76
2024/03/19 02:25:56;;;;;;;8.18;3.38;;;;;;;7.95;89.39;101517.41;6251273;28;20136;-76
2024/03/19 02:28:58;;;;;;;8.10;3.80;;;;;;;7.86;89.14;101507.22;6251045;28;20054;-76
2024/03/19 02:32:00;;;;;;;6.72;3.55;;;;;;;7.81;89.22;101502.13;6243152;28;20042;-76
2024/03/19 02:35:01;;;;;;;11.50;3.72;;;;;;;7.80;89.32;101504.75;6250544;28;20171;-76
2024/03/19 02:38:04;;;;;;;8.10;3.35;;;;;;;7.75;90.11;101498.81;6250986;28;20049;-76
2024/03/19 02:41:08;;;;;;;6.88;3.15;;;;;;;7.77;90.56;101508.34;6250581;28;20430;-76
2024/03/19 02:44:09;;;;;;;12.15;4.38;;;;;;;7.80;90.42;101499.53;6250813;28;20053;-76
2024/03/19 02:47:11;;;;;;;7.15;3.40;;;;;;;7.82;90.51;101501.22;6250675;28;20049;-76
2024/03/19 02:50:12;;;;;;;6.05;2.83;;;;;;;7.77;90.38;101500.50;6250064;28;20049;-76
2024/03/19 02:53:15;;;;;;;11.25;3.42;;;;;;;7.78;90.80;101501.34;6250834;28;20076;-76
2024/03/19 02:56:16;;;;;;;11.02;3.80;;;;;;;7.78;91.46;101512.66;6250333;28;20053;-76
2024/03/19 02:59:17;;;;;;;6.13;3.10;;;;;;;7.81;92.12;101506.47;6249425;28;20363;-75
2024/03/19 03:02:19;;;;;;;7.18;3.50;;;;;;;7.79;92.22;101514.38;6250565;28;20057;-76
2024/03/19 03:05:20;;;;;;;8.65;3.67;;;;;;;7.76;93.63;101511.84;6250248;28;20068;-76
2024/03/19 03:08:24;;;;;;;7.15;3.30;;;;;;;7.72;94.64;101517.19;6250272;28;20343;-77
2024/03/19 03:11:27;;;;;;;5.00;2.80;;;;;;;7.70;95.30;101513.78;6250096;28;20093;-77
2024/03/19 03:14:29;;;;;;;7.00;3.17;;;;;;;7.62;94.29;101516.63;6249179;28;20096;-77
2024/03/19 03:17:30;;;;;;;7.30;3.13;;;;;;;7.57;95.53;101511.50;6250057;28;20124;-76
2024/03/19 03:20:32;;;;;;;7.00;3.38;;;;;;;7.61;95.63;101520.13;6253067;28;20053;-77
2024/03/19 03:23:35;;;;;;;8.07;3.72;;;;;;;7.59;97.12;101519.34;6250343;28;20183;-76
2024/03/19 03:26:36;;;;;;;6.25;2.88;;;;;;;7.59;97.30;101519.34;6249909;28;20132;-76
2024/03/19 03:29:37;;;;;;;5.07;2.55;;;;;;;7.55;96.38;101518.56;6258746;28;20045;-76
2024/03/19 03:32:40;;;;;;;6.75;3.15;;;;;;;7.49;96.46;101520.47;6255077;28;20053;-78
2024/03/19 03:35:42;;;;;;;5.60;3.10;;;;;;;7.45;97.01;101526.69;6254117;28;20148;-77
2024/03/19 03:38:45;;;;;;;8.50;3.58;;;;;;;7.46;97.59;101529.28;6251904;28;20049;-76
2024/03/19 03:41:47;;;;;;;9.77;3.28;;;;;;;7.41;97.93;101525.09;6246183;28;20045;-76
2024/03/19 03:44:48;;;;;;;10.55;3.75;;;;;;;7.37;99.20;101527.78;6255227;28;20092;-76
2024/03/19 03:47:49;;;;;;;8.43;3.55;;;;;;;7.35;100.00;101524.31;6254810;28;20422;-77
2024/03/19 03:50:50;;;;;;;6.28;3.40;;;;;;;7.31;100.00;101527.97;6255077;28;20050;-76
2024/03/19 03:53:53;;;;;;;6.40;3.70;;;;;;;7.28;100.00;101535.00;6254761;28;20060;-76
2024/03/19 03:56:54;;;;;;;6.85;3.15;;;;;;;7.22;100.00;101524.69;6254316;28;20041;-78
2024/03/19 03:59:56;;;;;;;7.88;3.05;;;;;;;7.22;100.00;101532.53;6254185;28;20059;-76
2024/03/19 04:02:57;;;;;;;9.25;3.30;;;;;;;7.16;100.00;101525.72;6254811;28;20045;-76
2024/03/19 04:05:59;;;;;;;7.07;3.67;;;;;;;7.13;100.00;101533.69;6254259;28;20045;-76
2024/03/19 04:09:01;;;;;;;6.65;3.13;;;;;;;7.07;100.00;101531.19;6254199;28;20045;-78
2024/03/19 04:12:03;;;;;;;11.02;3.38;;;;;;;7.03;100.00;101530.41;6253728;28;20346;-77
2024/03/19 04:15:05;;;;;;;5.93;2.70;;;;;;;7.00;100.00;101532.28;6254190;28;20057;-76
2024/03/19 04:18:07;;;;;;;7.05;2.97;;;;;;;6.97;100.00;101527.13;6254135;28;20057;-77
2024/03/19 04:21:09;;;;;;;6.70;3.38;;;;;;;6.94;100.00;101533.28;6253677;28;20060;-77
2024/03/19 04:24:12;;;;;;;5.68;2.85;;;;;;;6.92;100.00;101523.78;6253728;28;20064;-77
2024/03/19 04:27:13;;;;;;;7.18;3.33;;;;;;;6.89;100.00;101523.84;6252995;28;20049;-77
2024/03/19 04:30:15;;;;;;;19.42;4.50;;;;;;;6.84;100.00;101527.44;6253713;28;20057;-77
2024/03/19 04:33:16;;;;;;;10.23;3.75;;;;;;;6.83;100.00;101522.25;6254077;28;20354;-76
2024/03/19 04:36:18;;;;;;;14.75;4.28;;;;;;;6.81;100.00;101522.31;6253186;28;20466;-76
2024/03/19 04:39:21;;;;;;;7.65;3.17;;;;;;;6.81;100.00;101531.88;6253079;28;20045;-77
2024/03/19 04:42:23;;;;;;;8.63;3.35;;;;;;;6.80;100.00;101532.75;6253289;28;20128;-77
2024/03/19 04:45:24;;;;;;;18.85;4.35;;;;;;;6.83;100.00;101527.47;6253168;28;20049;-77
2024/03/19 04:48:25;;;;;;;9.38;3.65;;;;;;;6.88;100.00;101535.19;6253616;28;20079;-77
2024/03/19 04:51:27;;;;;;;7.82;3.50;;;;;;;6.87;100.00;101539.56;6253840;28;20053;-76
2024/03/19 04:54:30;;;;;;;8.52;3.30;;;;;;;6.87;100.00;101531.72;6253226;28;20124;-75
2024/03/19 04:57:33;;;;;;;8.15;3.83;;;;;;;6.90;100.00;101528.16;6253196;28;20045;-77
2024/03/19 05:00:34;;;;;;;9.43;3.40;;;;;;;6.89;100.00;101524.69;6252251;28;20063;-76
2024/03/19 05:03:36;;;;;;;6.53;3.42;;;;;;;6.88;100.00;101533.44;6252435;28;20354;-76
2024/03/19 05:06:37;;;;;;;9.57;3.42;;;;;;;6.86;100.00;101527.41;6252063;28;20041;-77
2024/03/19 05:09:40;;;;;;;9.30;3.80;;;;;;;6.84;100.00;101532.66;6276781;22;20046;-74
2024/03/19 05:12:41;;;;;;;9.38;3.45;;;;;;;6.83;100.00;101545.75;6247323;28;20137;-74
2024/03/19 05:15:43;;;;;;;7.10;3.33;;;;;;;6.85;100.00;101546.56;6227926;28;20044;-74
2024/03/19 05:18:44;;;;;;;12.10;3.47;;;;;;;6.84;100.00;101548.31;6212790;28;20054;-74
2024/03/19 05:21:45;;;;;;;6.28;3.58;;;;;;;6.81;100.00;101543.19;6203488;28;20073;-74
2024/03/19 05:24:48;;;;;;;7.53;3.60;;;;;;;6.82;100.00;101551.88;6203528;28;20328;-74
2024/03/19 05:27:49;;;;;;;15.10;3.58;;;;;;;6.79;100.00;101555.41;6203601;28;20046;-74
2024/03/19 05:30:51;;;;;;;6.72;3.42;;;;;;;6.79;100.00;101554.56;6203580;28;20054;-74
2024/03/19 05:33:52;;;;;;;6.40;3.20;;;;;;;6.84;100.00;101555.31;6203538;28;20350;-74
2024/03/19 05:36:54;;;;;;;8.40;3.67;;;;;;;6.85;100.00;101547.41;6202995;28;20049;-74
2024/03/19 05:39:56;;;;;;;7.43;3.42;;;;;;;6.78;100.00;101551.09;6202989;28;20332;-74
2024/03/19 05:42:58;;;;;;;8.48;3.95;;;;;;;6.83;100.00;101551.84;6203225;28;20054;-74
2024/03/19 05:45:59;;;;;;;6.63;3.83;;;;;;;6.82;100.00;101549.28;6203452;28;20057;-74
2024/03/19 05:49:01;;;;;;;6.68;3.20;;;;;;;6.80;100.00;101551.06;6203040;28;20355;-74
2024/03/19 05:52:02;;;;;;;6.63;3.70;;;;;;;6.73;100.00;101555.59;6202231;28;20054;-74
2024/03/19 05:55:06;;;;;;;8.23;3.85;;;;;;;6.90;100.00;101560.38;6202728;28;20054;-75
2024/03/19 05:58:08;;;;;;;7.05;2.88;;;;;;;6.87;100.00;101560.47;6203036;28;20093;-74
2024/03/19 06:01:09;;;;;;;6.20;3.38;;;;;;;6.87;100.00;101555.25;6202572;28;20046;-74
2024/03/19 06:04:10;;;;;;;6.60;3.47;;;;;;;6.80;100.00;101559.75;6203105;28;20077;-73
2024/03/19 06:07:12;;;;;;;6.95;2.88;;;;;;;6.90;100.00;101555.16;6220725;28;20053;-74
2024/03/19 06:10:14;;;;;;;8.68;3.70;;;;;;;6.92;100.00;101562.97;6240824;28;20041;-74
2024/03/19 06:13:16;;;;;;;6.65;2.72;;;;;;;7.00;100.00;101569.72;6245517;28;20046;-74
2024/03/19 06:16:17;;;;;;;10.27;3.58;;;;;;;6.93;100.00;101573.38;6227562;28;20049;-74
2024/03/19 06:19:18;;;;;;;11.73;3.40;;;;;;;6.96;100.00;101573.31;6226828;28;20050;-73
2024/03/19 06:22:20;;;;;;;6.70;3.25;;;;;;;6.99;100.00;101572.34;6226975;28;20339;-74
2024/03/19 06:25:22;;;;;;;6.95;2.92;;;;;;;7.16;100.00;101569.31;6226857;28;20136;-74
2024/03/19 06:28:24;;;;;;;7.72;3.20;;;;;;;7.09;100.00;101573.84;6226604;28;20049;-74
2024/03/19 06:31:25;;;;;;;6.55;3.15;;;;;;;7.27;100.00;101580.38;6226186;28;20659;-73
2024/03/19 06:34:27;;;;;;;5.55;2.78;;;;;;;7.33;100.00;101575.81;6226524;28;20042;-73
2024/03/19 06:37:28;;;;;;;9.98;3.08;;;;;;;7.42;100.00;101579.94;6226196;28;20050;-73
2024/03/19 06:40:32;;;;;;;5.93;3.00;;;;;;;7.44;100.00;101583.38;6225811;28;20050;-73
2024/03/19 06:43:33;;;;;;;8.80;3.42;;;;;;;7.36;100.00;101591.44;6226406;28;20459;-74
2024/03/19 06:46:34;;;;;;;5.57;3.72;;;;;;;7.37;100.00;101597.53;6226091;28;20324;-74
2024/03/19 06:49:36;;;;;;;6.03;3.20;;;;;;;7.44;100.00;101603.44;6225772;28;20049;-74
2024/03/19 06:52:37;;;;;;;6.88;3.25;;;;;;;7.48;99.83;101605.06;6226232;28;20342;-73
2024/03/19 06:55:40;;;;;;;6.03;3.42;;;;;;;7.48;99.66;101598.06;6225984;28;20046;-74
2024/03/19 06:58:43;;;;;;;8.57;3.38;;;;;;;7.54;99.66;101607.50;6226232;28;20042;-73
2024/03/19 07:01:44;;;;;;;9.10;3.08;;;;;;;7.51;99.11;101608.47;6225039;28;20053;-73
2024/03/19 07:04:47;;;;;;;9.38;4.38;;;;;;;7.63;99.59;101612.53;6226062;28;20192;-74
2024/03/19 07:07:50;;;;;;;6.90;3.30;;;;;;;7.65;99.69;101615.09;6225923;28;20103;-73
2024/03/19 07:10:54;;;;;;;8.00;3.63;;;;;;;7.72;98.31;101616.63;6225120;28;20048;-74
2024/03/19 07:13:56;;;;;;;10.13;3.63;;;;;;;7.61;98.76;101615.16;6225949;28;20068;-74
2024/03/19 07:16:57;;;;;;;7.65;3.33;;;;;;;7.72;100.00;101627.09;6225570;28;20045;-73
2024/03/19 07:19:59;;;;;;;5.20;3.15;;;;;;;7.76;97.98;101631.34;6225520;28;20061;-74
2024/03/19 07:23:00;;;;;;;4.53;2.70;;;;;;;7.88;99.34;101628.38;6225710;28;20508;-73
2024/03/19 07:26:03;;;;;;;7.88;3.67;;;;;;;7.90;98.90;101629.19;6225814;28;20046;-73
2024/03/19 07:29:04;;;;;;;6.38;3.17;;;;;;;8.04;99.31;101631.41;6225095;28;20061;-73
2024/03/19 07:32:10;;;;;;;5.97;3.22;;;;;;;8.09;97.86;101634.78;6225217;28;20046;-74
2024/03/19 07:35:11;;;;;;;8.55;3.88;;;;;;;7.94;98.04;101640.44;6225580;28;20058;-73
2024/03/19 07:38:13;;;;;;;9.88;4.07;;;;;;;7.99;98.86;101639.41;6225838;28;20139;-73
2024/03/19 07:41:16;;;;;;;7.45;3.45;;;;;;;7.99;98.76;101638.53;6225144;28;20056;-74
2024/03/19 07:44:17;;;;;;;5.80;3.40;;;;;;;8.24;98.47;101634.34;6225682;28;20050;-73
2024/03/19 07:47:18;;;;;;;10.40;3.65;;;;;;;8.41;98.41;101648.72;6225423;28;20449;-73
2024/03/19 07:50:23;;;;;;;10.93;4.03;;;;;;;8.42;96.88;101659.16;6224369;28;20049;-73
2024/03/19 07:53:26;;;;;;;8.50;3.92;;;;;;;8.47;97.35;101656.41;6217927;28;20049;-74
2024/03/19 07:56:30;;;;;;;7.05;3.38;;;;;;;8.61;98.24;101662.06;6222009;28;20053;-74
2024/03/19 07:59:31;;;;;;;13.63;4.55;;;;;;;8.62;97.82;101658.53;6226221;28;20053;-75
2024/03/19 08:02:33;;;;;;;15.38;4.50;;;;;;;8.68;97.23;101653.13;6225277;28;20431;-74
2024/03/19 08:05:34;;;;;;;11.68;4.28;;;;;;;8.65;97.08;101653.22;6225095;28;20350;-73
2024/03/19 08:08:36;;;;;;;13.07;5.05;;;;;;;8.67;98.39;101661.03;6225180;28;20069;-73
2024/03/19 08:11:39;;;;;;;10.50;4.90;;;;;;;8.85;97.53;101663.91;6207058;28;20050;-75
2024/03/19 08:14:40;;;;;;;10.15;4.40;;;;;;;8.90;97.56;101663.78;6204710;28;20042;-74
2024/03/19 08:17:42;;;;;;;8.02;4.38;;;;;;;8.98;97.65;101656.53;6229505;28;20042;-76
2024/03/19 08:20:45;;;;;;;8.93;4.18;;;;;;;8.98;96.86;101653.91;6228958;28;20129;-77
2024/03/19 08:23:46;;;;;;;9.18;4.03;;;;;;;8.95;97.66;101653.16;6229433;28;20377;-78
2024/03/19 08:26:49;;;;;;;10.38;4.57;;;;;;;9.10;98.83;101648.28;6229099;28;20069;-77
2024/03/19 08:29:50;;;;;;;14.57;5.43;;;;;;;9.22;100.00;101652.28;6225106;28;20046;-77
2024/03/19 08:32:53;;;;;;;12.23;5.63;;;;;;;9.29;100.00;101655.53;6229390;28;20041;-76
2024/03/19 08:35:54;;;;;;;13.63;5.40;;;;;;;9.22;100.00;101659.25;6228807;28;20056;-76
2024/03/19 08:38:55;;;;;;;11.43;5.10;;;;;;;9.35;100.00;101661.41;6229076;28;20042;-76
2024/03/19 08:41:58;;;;;;;14.27;4.95;;;;;;;9.31;99.94;101659.84;6228516;28;20050;-76
2024/03/19 08:45:00;;;;;;;12.10;5.70;;;;;;;9.29;100.00;101659.00;6228953;28;20050;-76
2024/03/19 08:48:02;;;;;;;13.80;5.47;;;;;;;9.27;100.00;101662.63;6228897;28;20336;-76
2024/03/19 08:51:04;;;;;;;13.00;6.30;;;;;;;9.19;100.00;101667.25;6228711;28;20053;-76
2024/03/19 08:54:05;;;;;;;11.90;5.82;;;;;;;9.25;100.00;101662.66;6228886;28;20046;-76
2024/03/19 08:57:10;;;;;;;12.23;5.40;;;;;;;9.28;100.00;101659.94;6227987;28;20056;-76
2024/03/19 09:00:15;;;;;;;16.15;6.28;;;;;;;9.39;100.00;101663.03;6228282;28;20050;-76
2024/03/19 09:03:17;;;;;;;14.48;5.82;;;;;;;9.53;100.00;101665.19;6229129;28;20049;-76
2024/03/19 09:06:20;;;;;;;11.23;5.55;;;;;;;9.54;100.00;101666.06;6228432;28;20049;-76
2024/03/19 09:09:22;;;;;;;13.48;5.80;;;;;;;9.70;100.00;101663.75;6227869;28;20050;-74
2024/03/19 09:12:25;;;;;;;16.98;6.80;;;;;;;9.83;100.00;101665.91;6228641;28;20053;-74
2024/03/19 09:15:27;;;;;;;17.10;7.13;;;;;;;9.98;100.00;101663.63;6228134;28;20050;-75
2024/03/19 09:18:28;;;;;;;21.02;8.00;;;;;;;10.10;100.00;101671.06;6221723;28;20120;-75
2024/03/19 09:21:30;;;;;;;16.33;6.93;;;;;;;10.26;100.00;101674.03;6227948;28;20347;-76
2024/03/19 09:24:31;;;;;;;14.68;7.05;;;;;;;10.30;100.00;101675.63;6228835;28;20474;-75
2024/03/19 09:27:39;;;;;;;16.00;7.43;;;;;;;10.47;100.00;101665.34;6229864;28;20046;-75
2024/03/19 09:30:40;;;;;;;19.80;8.27;;;;;;;10.56;100.00;101664.97;6228393;28;20390;-74
2024/03/19 09:33:41;;;;;;;13.02;6.88;;;;;;;10.64;100.00;101667.31;6229021;28;20056;-75
2024/03/19 09:36:43;;;;;;;16.77;8.00;;;;;;;10.80;100.00;101667.56;6227932;28;20054;-76
2024/03/19 09:39:44;;;;;;;23.73;9.45;;;;;;;11.02;100.00;101671.06;6227303;28;20053;-76
2024/03/19 09:42:47;;;;;;;21.85;9.27;;;;;;;11.23;100.00;101658.81;6227729;28;20054;-76
2024/03/19 09:45:49;;;;;;;17.73;8.35;;;;;;;11.41;100.00;101665.09;6227572;28;20049;-76
2024/03/19 09:48:51;;;;;;;18.35;8.65;;;;;;;11.59;100.00;101668.72;6241594;28;20354;-76
2024/03/19 09:51:53;;;;;;;23.25;8.20;;;;;;;11.73;100.00;101661.06;6251630;28;20341;-75
2024/03/19 09:54:55;;;;;;;21.27;8.27;;;;;;;11.93;100.00;101668.13;6251808;28;20060;-76
2024/03/19 09:58:00;;;;;;;19.42;8.10;;;;;;;12.08;100.00;101669.22;6251919;28;20158;-75
2024/03/19 10:01:02;;;;;;;21.75;8.75;;;;;;;12.27;100.00;101671.91;6248508;28;20512;-76
2024/03/19 10:04:05;;;;;;;15.88;7.30;;;;;;;12.36;100.00;101667.06;6227349;28;20054;-76
2024/03/19 10:07:08;;;;;;;19.38;7.90;;;;;;;12.46;97.77;101664.84;6226704;28;20046;-73
2024/03/19 10:10:14;;;;;;;19.90;8.48;;;;;;;12.53;98.95;101668.03;6227024;28;20143;-76
2024/03/19 10:13:19;;;;;;;18.85;8.32;;;;;;;12.50;99.13;101663.78;6227917;28;20049;-75
2024/03/19 10:16:20;;;;;;;18.42;7.82;;;;;;;12.45;98.34;101657.88;6226901;28;20073;-75
2024/03/19 10:19:22;;;;;;;17.15;7.80;;;;;;;12.31;98.70;101655.00;6226441;28;20049;-75
2024/03/19 10:22:24;;;;;;;17.58;7.05;;;;;;;12.32;99.60;101656.72;6226757;28;20176;-75
2024/03/19 10:25:26;;;;;;;16.65;8.45;;;;;;;12.30;100.00;101655.94;6226584;28;20386;-73
2024/03/19 10:28:29;;;;;;;16.48;7.97;;;;;;;12.38;100.00;101665.19;6226607;28;20046;-74
2024/03/19 10:31:31;;;;;;;20.48;8.80;;;;;;;12.41;100.00;101658.94;6226467;28;20057;-74
2024/03/19 10:34:34;;;;;;;19.13;7.80;;;;;;;12.44;100.00;101650.88;6226331;28;20045;-74
2024/03/19 10:37:37;;;;;;;17.73;8.63;;;;;;;12.61;100.00;101650.94;6226220;28;20135;-75
2024/03/19 10:40:42;;;;;;;20.33;8.48;;;;;;;12.83;100.00;101648.13;6225908;28;20046;-74
2024/03/19 10:43:46;;;;;;;17.42;8.25;;;;;;;12.98;100.00;101633.31;6226624;28;20057;-74
2024/03/19 10:46:49;;;;;;;22.40;8.55;;;;;;;13.20;100.00;101648.97;6226174;28;20049;-74
2024/03/19 10:49:51;;;;;;;18.08;8.68;;;;;;;13.24;100.00;101640.00;6225730;28;20447;-75
2024/03/19 10:52:58;;;;;;;17.45;7.60;;;;;;;13.41;99.78;101632.09;6226105;28;20072;-75
2024/03/19 10:56:03;;;;;;;20.00;8.73;;;;;;;13.68;99.65;101631.59;6226287;28;20053;-75
2024/03/19 10:59:06;;;;;;;18.02;7.45;;;;;;;13.83;98.06;101622.84;6226080;28;20449;-75
2024/03/19 11:02:08;;;;;;;22.92;7.80;;;;;;;13.96;97.84;101620.41;6225634;28;20081;-76
2024/03/19 11:05:17;;;;;;;17.17;8.07;;;;;;;14.19;97.00;101613.88;6225909;28;20054;-74
2024/03/19 11:08:21;;;;;;;16.85;8.48;;;;;;;14.16;96.23;101614.03;6264324;22;20052;-74
2024/03/19 11:11:30;;;;;;;16.92;8.50;;;;;;;14.21;95.72;101617.28;6274899;28;20056;-74
2024/03/19 11:14:33;;;;;;;18.48;8.02;;;;;;;14.28;96.62;101612.53;6269737;28;20334;-74
2024/03/19 11:17:40;;;;;;;22.40;9.30;;;;;;;14.36;96.48;101605.88;6270636;28;20052;-75
2024/03/19 11:20:44;;;;;;;16.98;8.82;;;;;;;14.53;94.95;101604.97;6274035;28;20045;-75
2024/03/19 11:23:46;;;;;;;24.65;8.90;;;;;;;14.75;95.01;101596.66;6274962;28;20361;-74
2024/03/19 11:26:47;;;;;;;21.17;9.13;;;;;;;14.86;94.28;101598.72;6274766;28;20076;-74
2024/03/19 11:29:50;;;;;;;19.83;8.68;;;;;;;14.81;94.50;101603.41;6274489;28;20357;-74
2024/03/19 11:32:53;;;;;;;20.30;8.18;;;;;;;14.75;93.52;101604.59;6274919;28;20056;-75
2024/03/19 11:35:54;;;;;;;21.00;9.52;;;;;;;14.85;93.84;101604.91;6274436;28;20449;-75
2024/03/19 11:38:56;;;;;;;20.02;8.50;;;;;;;14.85;93.60;101605.81;6274294;28;20049;-76
2024/03/19 11:41:57;;;;;;;20.45;9.30;;;;;;;14.89;94.58;101598.50;6274165;28;20049;-74
2024/03/19 11:45:00;;;;;;;22.25;8.48;;;;;;;14.98;94.94;101595.34;6274633;28;20052;-74
2024/03/19 11:48:01;;;;;;;18.98;8.20;;;;;;;15.15;95.77;101605.78;6275089;28;20045;-74
2024/03/19 11:51:03;;;;;;;18.77;8.98;;;;;;;15.19;96.67;101614.41;6279347;28;20049;-76
2024/03/19 11:54:04;;;;;;;21.30;9.65;;;;;;;15.14;95.72;101597.97;6279547;28;20053;-75
2024/03/19 11:57:05;;;;;;;23.73;9.90;;;;;;;15.28;96.00;101599.78;6279360;28;20053;-74
2024/03/19 12:00:13;;;;;;;25.33;10.32;;;;;;;15.62;94.79;101599.44;6278710;28;20045;-75
2024/03/19 12:03:16;;;;;;;22.13;8.68;;;;;;;15.66;93.15;101593.03;6279174;28;20061;-75
2024/03/19 12:06:17;;;;;;;21.75;9.80;;;;;;;15.84;91.85;101593.72;6279053;28;20060;-74
2024/03/19 12:09:21;;;;;;;28.75;9.75;;;;;;;16.01;91.40;101597.97;6278709;28;20056;-75
2024/03/19 12:12:22;;;;;;;20.55;8.88;;;;;;;15.95;91.85;101598.38;6278887;28;20052;-75
2024/03/19 12:15:26;;;;;;;22.45;8.85;;;;;;;15.84;89.82;101593.72;6278803;28;20052;-75
2024/03/19 12:18:27;;;;;;;21.75;9.00;;;;;;;15.97;90.17;101589.34;6277680;28;20388;-75
2024/03/19 12:21:29;;;;;;;20.77;8.68;;;;;;;15.99;90.82;101583.97;6277444;28;20045;-76
2024/03/19 12:24:30;;;;;;;26.25;9.63;;;;;;;15.80;91.34;101589.56;6277949;28;20445;-75
2024/03/19 12:27:32;;;;;;;26.63;9.85;;;;;;;15.75;93.05;101575.72;6278590;28;20045;-76
2024/03/19 12:30:39;;;;;;;19.88;9.65;;;;;;;15.70;92.66;101581.31;6278289;28;20053;-75
2024/03/19 12:33:50;;;;;;;23.77;9.73;;;;;;;15.63;92.86;101581.78;6278577;28;20399;-75
2024/03/19 12:36:52;;;;;;;16.63;8.30;;;;;;;15.61;91.58;101573.91;6278322;28;20075;-75
2024/03/19 12:39:53;;;;;;;24.73;11.02;;;;;;;15.66;90.99;101576.28;6276371;28;20041;-76
2024/03/19 12:42:56;;;;;;;17.88;9.82;;;;;;;16.09;88.03;101565.69;6278195;28;20060;-76
2024/03/19 12:45:58;;;;;;;23.23;9.95;;;;;;;16.13;86.67;101560.09;6269092;28;20052;-76
2024/03/19 12:49:00;;;;;;;30.10;9.85;;;;;;;16.19;85.40;101564.16;6273794;28;20041;-77
2024/03/19 12:52:01;;;;;;;24.35;10.85;;;;;;;15.99;85.79;101562.78;6266353;28;20048;-76
2024/03/19 12:55:03;;;;;;;22.02;9.65;;;;;;;15.95;86.85;101554.16;6277582;28;20052;-75
2024/03/19 12:58:04;;;;;;;22.95;10.55;;;;;;;16.03;87.58;101568.72;6276468;28;20052;-75
2024/03/19 13:01:08;;;;;;;21.83;9.95;;;;;;;16.17;87.39;101572.22;6277580;28;20045;-75
2024/03/19 13:04:10;;;;;;;20.15;9.90;;;;;;;16.55;83.94;101557.41;6277094;28;20338;-75
2024/03/19 13:07:11;;;;;;;20.58;9.18;;;;;;;16.78;81.08;101564.75;6277736;28;20045;-75
2024/03/19 13:10:19;;;;;;;18.85;8.65;;;;;;;16.95;78.37;101566.28;6277199;28;20045;-69
2024/03/19 13:13:20;;;;;;;16.30;7.32;;;;;;;16.90;75.63;101561.28;6277607;28;20335;-75
2024/03/19 13:16:23;;;;;;;21.45;7.55;;;;;;;16.66;79.19;101562.84;6257431;28;20357;-72
2024/03/19 13:19:25;;;;;;;15.63;7.85;;;;;;;16.84;80.27;101559.00;6266796;28;20063;-75
2024/03/19 13:22:27;;;;;;;16.92;7.93;;;;;;;16.79;78.38;101561.13;6268622;28;20048;-75
2024/03/19 13:25:30;;;;;;;24.17;8.82;;;;;;;16.42;80.64;101552.91;6274055;28;20045;-75
2024/03/19 13:28:32;;;;;;;17.60;7.90;;;;;;;16.17;82.10;101556.31;6274987;28;20106;-75
2024/03/19 13:31:34;;;;;;;15.73;7.50;;;;;;;16.16;82.44;101569.63;6272203;28;20356;-74
2024/03/19 13:34:36;;;;;;;22.90;8.40;;;;;;;16.14;82.73;101568.91;6276240;28;20045;-75
2024/03/19 13:37:39;;;;;;;20.13;9.20;;;;;;;15.96;85.42;101565.59;6276442;28;20053;-73
2024/03/19 13:40:41;;;;;;;16.20;8.55;;;;;;;16.08;84.72;101564.84;6275931;28;20047;-74
2024/03/19 13:43:42;;;;;;;16.30;7.43;;;;;;;15.96;84.58;101562.94;6276066;28;20098;-74
2024/03/19 13:46:45;;;;;;;17.38;7.78;;;;;;;16.12;84.30;101557.50;6276271;28;20048;-74
2024/03/19 13:49:47;;;;;;;16.50;7.72;;;;;;;16.15;84.14;101565.28;6275885;28;20348;-74
2024/03/19 13:52:48;;;;;;;16.60;8.10;;;;;;;15.98;83.31;101572.50;6268181;28;20456;-73
2024/03/19 13:55:49;;;;;;;19.08;8.93;;;;;;;16.07;85.25;101560.47;6275817;28;20060;-75
2024/03/19 13:58:51;;;;;;;16.83;7.63;;;;;;;16.05;84.22;101570.31;6275960;28;20052;-74
2024/03/19 14:01:54;;;;;;;16.60;8.18;;;;;;;15.93;81.99;101569.28;6275311;28;20064;-75
2024/03/19 14:04:56;;;;;;;16.65;8.15;;;;;;;15.94;83.33;101575.44;6275800;28;20327;-75